createdAt,value
2023-04-16T00:00:44.866Z,5.81
2023-04-16T00:03:17.616Z,5.75
2023-04-16T00:05:49.902Z,5.73
2023-04-16T00:08:21.832Z,5.68
2023-04-16T00:10:55.303Z,5.70
2023-04-16T00:13:28.050Z,5.68
2023-04-16T00:16:00.267Z,5.67
2023-04-16T00:18:32.507Z,5.66
2023-04-16T00:21:04.729Z,5.63
2023-04-16T00:23:36.947Z,5.61
2023-04-16T00:26:10.184Z,5.59
2023-04-16T00:28:43.833Z,5.53
2023-04-16T00:31:16.117Z,5.50
2023-04-16T00:33:48.071Z,5.49
2023-04-16T00:36:20.176Z,5.46
2023-04-16T00:38:52.532Z,5.48
2023-04-16T00:41:24.845Z,5.44
2023-04-16T00:43:56.906Z,5.39
2023-04-16T00:46:29.641Z,5.36
2023-04-16T00:49:03.731Z,5.32
2023-04-16T00:51:37.223Z,5.30
2023-04-16T00:54:09.299Z,5.26
2023-04-16T00:56:41.707Z,5.22
2023-04-16T00:59:14.080Z,5.18
2023-04-16T01:01:46.178Z,5.14
2023-04-16T01:04:18.768Z,5.12
2023-04-16T01:06:51.385Z,5.09
2023-04-16T01:09:24.046Z,5.09
2023-04-16T01:11:56.415Z,5.05
2023-04-16T01:14:28.522Z,5.01
2023-04-16T01:17:00.873Z,4.96
2023-04-16T01:19:32.939Z,4.96
2023-04-16T01:22:06.167Z,4.97
2023-04-16T01:24:39.878Z,4.95
2023-04-16T01:27:13.752Z,4.92
2023-04-16T01:29:45.938Z,4.93
2023-04-16T01:32:19.663Z,4.93
2023-04-16T01:34:52.019Z,4.97
2023-04-16T01:37:24.134Z,4.96
2023-04-16T01:39:56.201Z,4.97
2023-04-16T01:42:28.713Z,4.97
2023-04-16T01:45:01.046Z,5.00
2023-04-16T01:47:34.501Z,5.01
2023-04-16T01:50:07.774Z,5.02
2023-04-16T01:52:39.894Z,5.01
2023-04-16T01:55:12.474Z,5.03
2023-04-16T01:57:44.926Z,5.05
2023-04-16T02:00:17.689Z,5.12
2023-04-16T02:02:52.148Z,5.14
2023-04-16T02:05:26.081Z,5.16
2023-04-16T02:07:58.423Z,5.18
2023-04-16T02:10:30.641Z,5.20
2023-04-16T02:13:02.784Z,5.25
2023-04-16T02:15:35.116Z,5.25
2023-04-16T02:18:07.795Z,5.24
2023-04-16T02:20:42.843Z,5.23
2023-04-16T02:23:15.670Z,5.24
2023-04-16T02:25:48.971Z,5.21
2023-04-16T02:28:21.766Z,5.16
2023-04-16T02:30:53.878Z,5.17
2023-04-16T02:33:26.950Z,5.16
2023-04-16T02:36:00.855Z,5.11
2023-04-16T02:38:33.297Z,5.06
2023-04-16T02:41:05.711Z,5.04
2023-04-16T02:43:38.357Z,5.03
2023-04-16T02:46:10.512Z,5.06
2023-04-16T02:48:42.811Z,5.07
2023-04-16T02:51:14.835Z,5.09
2023-04-16T02:53:47.238Z,5.14
2023-04-16T02:56:19.202Z,5.16
2023-04-16T02:58:51.402Z,5.17
2023-04-16T03:01:23.506Z,5.16
2023-04-16T03:03:55.842Z,5.11
2023-04-16T03:06:27.949Z,5.10
2023-04-16T03:09:00.250Z,5.10
2023-04-16T03:11:32.283Z,5.12
2023-04-16T03:14:04.491Z,5.13
2023-04-16T03:16:36.693Z,5.15
2023-04-16T03:19:09.101Z,5.17
2023-04-16T03:21:41.389Z,5.17
2023-04-16T03:24:13.901Z,5.19
2023-04-16T03:26:46.097Z,5.20
2023-04-16T03:29:18.402Z,5.22
2023-04-16T03:31:50.991Z,5.25
2023-04-16T03:34:22.891Z,5.31
2023-04-16T03:36:55.023Z,5.35
2023-04-16T03:39:27.370Z,5.40
2023-04-16T03:41:59.418Z,5.44
2023-04-16T03:44:32.256Z,5.48
2023-04-16T03:47:05.568Z,5.54
2023-04-16T03:49:37.839Z,5.61
2023-04-16T03:52:11.454Z,5.67
2023-04-16T03:54:44.072Z,5.71
2023-04-16T03:57:17.699Z,5.79
2023-04-16T03:59:50.255Z,5.90
2023-04-16T04:02:22.899Z,6.01
2023-04-16T04:04:55.232Z,6.14
2023-04-16T04:07:27.699Z,6.29
2023-04-16T04:10:00.078Z,6.46
2023-04-16T04:12:33.886Z,6.61
2023-04-16T04:15:06.486Z,6.75
2023-04-16T04:17:38.921Z,6.92
2023-04-16T04:20:12.421Z,7.13
2023-04-16T04:22:46.454Z,7.35
2023-04-16T04:25:19.273Z,7.57
2023-04-16T04:27:51.876Z,7.78
2023-04-16T04:30:24.112Z,7.97
2023-04-16T04:32:56.291Z,8.11
2023-04-16T04:35:29.025Z,8.27
2023-04-16T04:38:04.050Z,8.40
2023-04-16T04:40:37.070Z,8.56
2023-04-16T04:43:09.084Z,8.72
2023-04-16T04:45:41.690Z,8.86
2023-04-16T04:48:14.238Z,9.00
2023-04-16T04:50:47.107Z,9.08
2023-04-16T04:53:19.055Z,9.14
2023-04-16T04:55:54.023Z,9.16
2023-04-16T04:58:25.235Z,9.15
2023-04-16T05:00:57.394Z,9.15
2023-04-16T05:03:29.568Z,9.16
2023-04-16T05:06:01.937Z,9.18
2023-04-16T05:08:34.872Z,9.22
2023-04-16T05:11:07.014Z,9.29
2023-04-16T05:13:39.079Z,9.37
2023-04-16T05:16:11.446Z,9.51
2023-04-16T05:18:44.097Z,9.67
2023-04-16T05:21:16.541Z,9.77
2023-04-16T05:23:48.599Z,9.86
2023-04-16T05:26:21.212Z,9.94
2023-04-16T05:28:55.730Z,10.05
2023-04-16T05:31:27.378Z,10.13
2023-04-16T05:33:59.951Z,10.25
2023-04-16T05:36:32.044Z,10.31
2023-04-16T05:39:04.361Z,10.40
2023-04-16T05:41:36.500Z,10.45
2023-04-16T05:44:08.608Z,10.50
2023-04-16T05:46:41.258Z,10.52
2023-04-16T05:49:13.649Z,10.53
2023-04-16T05:51:45.857Z,10.52
2023-04-16T05:54:18.640Z,10.49
2023-04-16T05:56:50.683Z,10.55
2023-04-16T05:59:23.340Z,10.87
2023-04-16T06:01:55.501Z,11.29
2023-04-16T06:04:27.800Z,11.90
2023-04-16T06:06:59.864Z,12.45
2023-04-16T06:09:31.875Z,12.74
2023-04-16T06:12:04.057Z,12.95
2023-04-16T06:14:36.478Z,13.18
2023-04-16T06:17:08.693Z,13.70
2023-04-16T06:19:40.910Z,14.32
2023-04-16T06:22:13.106Z,14.75
2023-04-16T06:24:45.709Z,15.45
2023-04-16T06:27:17.705Z,15.62
2023-04-16T06:29:49.900Z,15.73
2023-04-16T06:32:22.050Z,16.02
2023-04-16T06:34:54.547Z,16.37
2023-04-16T06:37:26.809Z,16.62
2023-04-16T06:39:58.830Z,16.80
2023-04-16T06:42:31.080Z,17.08
2023-04-16T06:45:03.278Z,17.31
2023-04-16T06:47:35.714Z,18.54
2023-04-16T06:50:08.480Z,18.54
2023-04-16T06:52:40.702Z,18.93
2023-04-16T06:55:13.095Z,18.97
2023-04-16T06:57:45.456Z,18.89
2023-04-16T07:00:17.662Z,19.31
2023-04-16T07:02:49.877Z,19.31
2023-04-16T07:05:22.107Z,20.17
2023-04-16T07:07:55.927Z,20.66
2023-04-16T07:10:27.883Z,20.96
2023-04-16T07:13:01.675Z,20.75
2023-04-16T07:15:33.947Z,20.12
2023-04-16T07:18:06.577Z,19.60
2023-04-16T07:20:38.848Z,18.93
2023-04-16T07:23:11.099Z,18.33
2023-04-16T07:25:44.527Z,17.79
2023-04-16T07:28:17.851Z,17.38
2023-04-16T07:30:50.615Z,17.13
2023-04-16T07:33:22.802Z,16.68
2023-04-16T07:35:54.910Z,16.68
2023-04-16T07:38:26.862Z,16.51
2023-04-16T07:40:58.963Z,16.29
2023-04-16T07:43:31.113Z,16.11
2023-04-16T07:46:03.283Z,15.91
2023-04-16T07:48:35.638Z,15.83
2023-04-16T07:51:07.811Z,15.79
2023-04-16T07:53:40.271Z,15.76
2023-04-16T07:56:12.648Z,15.76
2023-04-16T07:58:44.667Z,15.76
2023-04-16T08:01:16.693Z,15.80
2023-04-16T08:03:49.403Z,15.80
2023-04-16T08:06:21.884Z,15.85
2023-04-16T08:08:54.131Z,15.90
2023-04-16T08:11:26.302Z,15.99
2023-04-16T08:13:58.823Z,15.98
2023-04-16T08:16:31.016Z,16.01
2023-04-16T08:19:03.875Z,16.05
2023-04-16T08:21:36.404Z,16.15
2023-04-16T08:24:09.204Z,16.20
2023-04-16T08:26:41.330Z,16.25
2023-04-16T08:29:13.684Z,16.22
2023-04-16T08:31:46.315Z,16.26
2023-04-16T08:34:19.228Z,16.23
2023-04-16T08:36:52.042Z,16.25
2023-04-16T08:39:24.406Z,16.29
2023-04-16T08:41:58.239Z,16.20
2023-04-16T08:44:34.151Z,16.18
2023-04-16T08:47:09.649Z,16.17
2023-04-16T08:49:42.503Z,16.20
2023-04-16T08:52:17.466Z,16.43
2023-04-16T08:54:56.973Z,16.12
2023-04-16T08:57:32.230Z,15.98
2023-04-16T09:00:05.417Z,16.00
2023-04-16T09:02:37.432Z,16.04
2023-04-16T09:05:11.934Z,16.06
2023-04-16T09:07:47.793Z,16.08
2023-04-16T09:10:21.052Z,16.12
2023-04-16T09:12:55.102Z,16.22
2023-04-16T09:15:27.743Z,16.30
2023-04-16T09:18:00.043Z,16.40
2023-04-16T09:20:33.184Z,16.40
2023-04-16T09:23:05.606Z,16.41
2023-04-16T09:25:38.750Z,16.42
2023-04-16T09:28:11.958Z,16.49
2023-04-16T09:30:44.270Z,16.61
2023-04-16T09:33:24.733Z,16.77
2023-04-16T09:35:57.417Z,16.81
2023-04-16T09:38:50.033Z,16.93
2023-04-16T09:41:30.325Z,17.00
2023-04-16T09:44:04.823Z,17.05
2023-04-16T09:46:37.632Z,17.13
2023-04-16T09:49:14.011Z,17.58
2023-04-16T09:51:48.198Z,17.43
2023-04-16T09:54:20.755Z,17.48
2023-04-16T09:56:52.363Z,18.01
2023-04-16T09:59:25.844Z,17.80
2023-04-16T10:02:14.797Z,17.77
2023-04-16T10:04:42.919Z,17.83
2023-04-16T10:07:14.930Z,17.88
2023-04-16T10:09:53.041Z,17.81
2023-04-16T10:12:25.259Z,17.81
2023-04-16T10:14:57.454Z,17.87
2023-04-16T10:17:30.470Z,17.82
2023-04-16T10:20:04.223Z,17.88
2023-04-16T10:22:36.802Z,17.94
2023-04-16T10:25:09.715Z,18.06
2023-04-16T10:27:42.720Z,18.09
2023-04-16T10:30:16.782Z,18.11
2023-04-16T10:32:51.398Z,18.05
2023-04-16T10:35:23.536Z,18.21
2023-04-16T10:37:59.076Z,18.20
2023-04-16T10:40:31.339Z,18.20
2023-04-16T10:43:03.651Z,18.23
2023-04-16T10:45:40.288Z,18.14
2023-04-16T10:48:14.234Z,18.06
2023-04-16T10:50:58.051Z,17.96
2023-04-16T10:53:30.422Z,17.82
2023-04-16T10:56:12.252Z,17.64
2023-04-16T10:58:44.519Z,17.50
2023-04-16T11:01:17.204Z,17.33
2023-04-16T11:03:49.726Z,17.05
2023-04-16T11:06:29.719Z,16.85
2023-04-16T11:09:04.154Z,16.64
2023-04-16T11:11:39.739Z,16.47
2023-04-16T11:14:13.318Z,16.37
2023-04-16T11:16:46.270Z,16.25
2023-04-16T11:19:19.110Z,16.22
2023-04-16T11:21:52.659Z,16.22
2023-04-16T11:24:26.197Z,16.21
2023-04-16T11:26:59.121Z,16.06
2023-04-16T11:29:31.284Z,16.02
2023-04-16T11:32:03.373Z,15.92
2023-04-16T11:34:35.582Z,15.84
2023-04-16T11:37:07.884Z,15.82
2023-04-16T11:39:55.373Z,15.74
2023-04-16T11:42:29.842Z,15.72
2023-04-16T11:45:01.630Z,15.70
2023-04-16T11:47:33.756Z,15.89
2023-04-16T11:50:29.137Z,15.76
2023-04-16T11:53:07.944Z,15.81
2023-04-16T11:55:49.619Z,15.93
2023-04-16T11:58:25.134Z,16.09
2023-04-16T12:01:05.550Z,16.21
2023-04-16T12:03:43.505Z,16.35
2023-04-16T12:06:16.379Z,16.55
2023-04-16T12:08:48.870Z,16.69
2023-04-16T12:11:21.278Z,16.93
2023-04-16T12:14:12.920Z,17.42
2023-04-16T12:16:44.919Z,18.37
2023-04-16T12:19:17.388Z,20.61
2023-04-16T12:21:51.326Z,23.29
2023-04-16T12:24:24.973Z,25.85
2023-04-16T12:26:57.634Z,27.80
2023-04-16T12:29:30.145Z,29.68
2023-04-16T12:32:03.382Z,31.05
2023-04-16T12:34:48.327Z,32.54
2023-04-16T12:37:13.008Z,33.89
2023-04-16T12:39:47.555Z,35.38
2023-04-16T12:42:19.627Z,36.56
2023-04-16T12:44:51.853Z,37.33
2023-04-16T12:47:23.808Z,37.57
2023-04-16T12:49:56.762Z,37.46
2023-04-16T12:52:29.219Z,37.46
2023-04-16T12:55:02.949Z,37.55
2023-04-16T12:57:35.433Z,37.89
2023-04-16T13:00:11.571Z,38.00
2023-04-16T13:02:43.888Z,38.20
2023-04-16T13:05:17.549Z,39.00
2023-04-16T13:07:49.523Z,39.79
2023-04-16T13:10:23.683Z,42.10
2023-04-16T13:12:56.261Z,40.77
2023-04-16T13:15:28.329Z,40.31
2023-04-16T13:18:00.684Z,39.62
2023-04-16T13:20:34.312Z,39.44
2023-04-16T13:23:06.403Z,39.67
2023-04-16T13:25:38.671Z,39.81
2023-04-16T13:28:10.793Z,39.60
2023-04-16T13:30:43.291Z,39.37
2023-04-16T13:33:16.325Z,38.52
2023-04-16T13:35:50.972Z,37.84
2023-04-16T13:38:23.282Z,37.71
2023-04-16T13:40:55.637Z,36.22
2023-04-16T13:43:27.863Z,33.98
2023-04-16T13:46:01.126Z,31.90
2023-04-16T13:48:33.477Z,32.40
2023-04-16T13:51:05.906Z,33.09
2023-04-16T13:53:38.024Z,33.68
2023-04-16T13:56:11.513Z,33.94
2023-04-16T13:58:43.681Z,34.76
2023-04-16T14:01:16.172Z,35.42
2023-04-16T14:03:48.606Z,35.45
2023-04-16T14:06:21.365Z,35.40
2023-04-16T14:08:53.607Z,34.03
2023-04-16T14:11:25.853Z,32.09
2023-04-16T14:13:58.871Z,30.09
2023-04-16T14:16:31.304Z,28.63
2023-04-16T14:19:03.765Z,27.20
2023-04-16T14:21:35.964Z,25.80
2023-04-16T14:24:09.460Z,24.54
2023-04-16T14:26:43.029Z,23.47
2023-04-16T14:29:15.662Z,22.68
2023-04-16T14:31:47.719Z,22.14
2023-04-16T14:34:20.928Z,21.85
2023-04-16T14:36:53.653Z,21.65
2023-04-16T14:39:26.075Z,22.43
2023-04-16T14:41:58.748Z,24.04
2023-04-16T14:44:30.802Z,24.66
2023-04-16T14:47:03.039Z,24.83
2023-04-16T14:49:35.414Z,25.79
2023-04-16T14:52:08.134Z,25.58
2023-04-16T14:54:40.258Z,24.81
2023-04-16T14:57:12.744Z,23.66
2023-04-16T14:59:45.128Z,22.71
2023-04-16T15:02:17.616Z,21.74
2023-04-16T15:04:49.899Z,20.95
2023-04-16T15:07:22.264Z,20.32
2023-04-16T15:09:54.522Z,19.72
2023-04-16T15:12:26.897Z,19.21
2023-04-16T15:14:59.971Z,18.65
2023-04-16T15:17:33.796Z,18.03
2023-04-16T15:20:09.362Z,17.55
2023-04-16T15:22:41.751Z,17.14
2023-04-16T15:25:14.653Z,16.79
2023-04-16T15:27:46.666Z,16.52
2023-04-16T15:30:18.970Z,16.25
2023-04-16T15:32:51.144Z,16.01
2023-04-16T15:35:23.255Z,15.77
2023-04-16T15:37:55.540Z,15.49
2023-04-16T15:40:27.805Z,15.49
2023-04-16T15:42:59.888Z,15.36
2023-04-16T15:45:32.527Z,15.14
2023-04-16T15:48:05.799Z,15.14
2023-04-16T15:50:38.545Z,15.03
2023-04-16T15:53:10.928Z,14.92
2023-04-16T15:55:44.329Z,14.81
2023-04-16T15:58:16.723Z,14.73
2023-04-16T16:00:50.849Z,14.65
2023-04-16T16:03:22.961Z,14.55
2023-04-16T16:05:55.803Z,14.47
2023-04-16T16:08:30.762Z,14.37
2023-04-16T16:11:03.446Z,14.29
2023-04-16T16:13:37.121Z,14.21
2023-04-16T16:16:09.497Z,14.13
2023-04-16T16:18:42.305Z,14.08
2023-04-16T16:21:14.511Z,14.04
2023-04-16T16:23:46.765Z,14.00
2023-04-16T16:26:20.740Z,13.97
2023-04-16T16:28:53.038Z,13.94
2023-04-16T16:31:25.521Z,13.95
2023-04-16T16:33:57.614Z,13.92
2023-04-16T16:36:30.061Z,13.88
2023-04-16T16:39:03.644Z,13.85
2023-04-16T16:41:37.439Z,13.81
2023-04-16T16:44:10.342Z,13.78
2023-04-16T16:46:42.510Z,13.74
2023-04-16T16:49:15.892Z,13.67
2023-04-16T16:51:50.869Z,13.62
2023-04-16T16:54:23.095Z,13.57
2023-04-16T16:56:55.228Z,13.51
2023-04-16T16:59:27.421Z,13.49
2023-04-16T17:01:59.427Z,13.45
2023-04-16T17:04:31.639Z,13.39
2023-04-16T17:07:03.713Z,13.26
2023-04-16T17:09:35.880Z,13.16
2023-04-16T17:12:07.978Z,13.03
2023-04-16T17:14:40.099Z,12.95
2023-04-16T17:17:12.212Z,12.88
2023-04-16T17:19:44.330Z,12.80
2023-04-16T17:22:16.450Z,12.75
2023-04-16T17:24:48.592Z,12.72
2023-04-16T17:27:20.864Z,12.68
2023-04-16T17:29:54.691Z,12.66
2023-04-16T17:32:28.407Z,12.67
2023-04-16T17:35:04.250Z,12.67
2023-04-16T17:37:36.536Z,12.67
2023-04-16T17:40:10.189Z,12.68
2023-04-16T17:42:42.731Z,12.69
2023-04-16T17:45:14.859Z,12.68
2023-04-16T17:47:47.168Z,12.70
2023-04-16T17:50:19.520Z,12.70
2023-04-16T17:52:51.689Z,12.70
2023-04-16T17:55:23.733Z,12.72
2023-04-16T17:57:56.105Z,12.74
2023-04-16T18:00:28.449Z,12.72
2023-04-16T18:03:00.744Z,12.74
2023-04-16T18:05:32.952Z,12.70
2023-04-16T18:08:05.102Z,12.70
2023-04-16T18:10:37.251Z,12.74
2023-04-16T18:13:09.345Z,12.74
2023-04-16T18:15:41.812Z,12.72
2023-04-16T18:18:13.896Z,12.79
2023-04-16T18:20:45.974Z,12.78
2023-04-16T18:23:18.072Z,12.79
2023-04-16T18:25:50.115Z,12.83
2023-04-16T18:28:22.338Z,12.85
2023-04-16T18:30:58.504Z,12.87
2023-04-16T18:33:51.971Z,12.88
2023-04-16T18:36:02.541Z,12.93
2023-04-16T18:38:34.675Z,12.94
2023-04-16T18:41:06.963Z,12.90
2023-04-16T18:43:39.201Z,12.89
2023-04-16T18:46:11.504Z,12.90
2023-04-16T18:48:45.230Z,12.89
2023-04-16T18:51:17.345Z,12.88
2023-04-16T18:53:49.404Z,12.85
2023-04-16T18:56:21.770Z,12.78
2023-04-16T18:58:54.966Z,12.78
2023-04-16T19:01:27.336Z,12.77
2023-04-16T19:03:59.598Z,12.78
2023-04-16T19:06:32.724Z,12.76
2023-04-16T19:09:04.843Z,12.76
2023-04-16T19:11:37.364Z,12.73
2023-04-16T19:14:09.343Z,12.72
2023-04-16T19:16:41.879Z,12.72
2023-04-16T19:19:14.195Z,12.72
2023-04-16T19:21:46.622Z,12.72
2023-04-16T19:24:19.924Z,12.72
2023-04-16T19:26:52.114Z,12.74
2023-04-16T19:29:24.090Z,12.72
2023-04-16T19:31:56.301Z,12.77
2023-04-16T19:34:28.459Z,12.78
2023-04-16T19:37:00.541Z,12.78
2023-04-16T19:39:33.290Z,12.77
2023-04-16T19:42:05.345Z,12.77
2023-04-16T19:44:37.535Z,12.74
2023-04-16T19:47:09.603Z,12.72
2023-04-16T19:49:43.678Z,12.71
2023-04-16T19:52:16.884Z,12.65
2023-04-16T19:54:48.932Z,12.61
2023-04-16T19:57:21.150Z,12.61
2023-04-16T19:59:55.092Z,12.58
2023-04-16T20:02:27.442Z,12.54
2023-04-16T20:05:01.518Z,12.48
2023-04-16T20:07:33.636Z,12.44
2023-04-16T20:10:05.654Z,12.58
2023-04-16T20:12:38.030Z,12.39
2023-04-16T20:15:10.776Z,12.41
2023-04-16T20:17:42.890Z,12.46
2023-04-16T20:20:15.993Z,12.52
2023-04-16T20:22:48.185Z,12.56
2023-04-16T20:25:20.678Z,12.55
2023-04-16T20:27:52.921Z,12.57
2023-04-16T20:30:26.652Z,12.59
2023-04-16T20:32:58.770Z,12.60
2023-04-16T20:35:30.733Z,12.60
2023-04-16T20:38:03.097Z,12.60
2023-04-16T20:40:36.700Z,12.60
2023-04-16T20:43:10.490Z,12.59
2023-04-16T20:45:44.397Z,12.59
2023-04-16T20:48:16.671Z,12.57
2023-04-16T20:50:48.990Z,12.57
2023-04-16T20:53:21.043Z,12.58
2023-04-16T20:55:53.181Z,12.59
2023-04-16T20:58:25.347Z,12.56
2023-04-16T21:00:58.688Z,12.55
2023-04-16T21:03:31.218Z,12.55
2023-04-16T21:06:04.012Z,12.55
2023-04-16T21:08:36.326Z,12.52
2023-04-16T21:11:08.444Z,12.49
2023-04-16T21:13:40.684Z,12.47
2023-04-16T21:16:12.845Z,12.46
2023-04-16T21:18:45.208Z,12.47
2023-04-16T21:21:17.313Z,12.45
2023-04-16T21:23:49.525Z,12.43
2023-04-16T21:26:21.758Z,12.38
2023-04-16T21:28:55.248Z,12.32
2023-04-16T21:31:27.537Z,12.27
2023-04-16T21:33:59.621Z,12.22
2023-04-16T21:36:33.381Z,12.20
2023-04-16T21:39:05.637Z,12.16
2023-04-16T21:41:37.893Z,12.14
2023-04-16T21:44:10.015Z,12.09
2023-04-16T21:46:42.258Z,12.06
2023-04-16T21:49:14.438Z,12.03
2023-04-16T21:51:46.479Z,11.99
2023-04-16T21:54:20.280Z,11.98
2023-04-16T21:56:52.407Z,11.94
2023-04-16T21:59:24.482Z,11.91
2023-04-16T22:01:56.881Z,11.87
2023-04-16T22:04:30.526Z,11.84
2023-04-16T22:07:03.453Z,11.83
2023-04-16T22:09:38.810Z,11.78
2023-04-16T22:12:10.964Z,11.74
2023-04-16T22:14:55.463Z,11.71
2023-04-16T22:17:17.355Z,11.68
2023-04-16T22:19:50.844Z,11.64
2023-04-16T22:22:23.063Z,11.62
2023-04-16T22:24:55.116Z,11.60
2023-04-16T22:27:27.391Z,11.57
2023-04-16T22:29:59.892Z,11.57
2023-04-16T22:32:33.695Z,11.55
2023-04-16T22:35:06.153Z,11.54
2023-04-16T22:37:38.422Z,11.52
2023-04-16T22:40:11.591Z,11.51
2023-04-16T22:42:43.616Z,11.49
2023-04-16T22:45:15.697Z,11.50
2023-04-16T22:47:48.014Z,11.49
2023-04-16T22:50:20.863Z,11.50
2023-04-16T22:52:53.051Z,11.48
2023-04-16T22:55:25.809Z,11.48
2023-04-16T22:57:58.147Z,11.47
2023-04-16T23:00:30.360Z,11.45
2023-04-16T23:03:02.754Z,11.45
2023-04-16T23:05:35.193Z,11.43
2023-04-16T23:08:07.376Z,11.45
2023-04-16T23:10:39.703Z,11.46
2023-04-16T23:13:12.124Z,11.47
2023-04-16T23:15:44.312Z,11.47
2023-04-16T23:18:16.963Z,11.46
2023-04-16T23:20:53.708Z,11.45
2023-04-16T23:23:26.189Z,11.45
2023-04-16T23:25:58.273Z,11.43
2023-04-16T23:28:30.653Z,11.39
2023-04-16T23:31:04.211Z,11.38
2023-04-16T23:33:36.710Z,11.35
2023-04-16T23:36:09.332Z,11.33
2023-04-16T23:38:41.553Z,11.31
2023-04-16T23:41:13.755Z,11.28
2023-04-16T23:43:45.898Z,11.24
2023-04-16T23:46:18.091Z,11.21
2023-04-16T23:48:50.154Z,11.19
2023-04-16T23:51:22.346Z,11.18
2023-04-16T23:53:54.346Z,11.17
2023-04-16T23:56:26.446Z,11.18
2023-04-16T23:58:58.706Z,11.17
